HLG weather

Legaria Heliport
Miguel Hidalgo, Ciudad de México, Mexico

Public forecast

Using degrees Celsius for public forecast. Weather courtesy of forecast.io.

Closest aviation weather report (METAR) to Legaria Heliport

Closest report is Licenciado Benito Juarez International Airport, 7.7 nm (14.2 km) E. Retrieved 2019/12/13 04:42 UTC (11 minutes ago):

MMMX 130442Z 36005KT 10SM FEW025 SCT080 16/04 A3039 NOSIG RMK 8/530 CI

Closest aviation forecast (TAF) to Legaria Heliport

Closest forecast is Licenciado Benito Juarez International Airport, 7.7 nm (14.2 km) E. Retrieved 2019-12-13 00:57 UTC (4 hours ago):

TAF MMMX 122250Z 1300/1406 04005KT P6SM SCT025 BKN250 TX23/1321Z TN08/1312Z FM130300 00000KT P6SM BKN200 FM131200 00000KT 5SM HZ BKN020 FM131500 00000KT 6SM HZ BKN250 FM132000 04010KT P6SM SCT030 FM140100 00000KT P6SM SKC